Time;durP1;ratioP1;P1;durP2;ratioP2;P2;SDS_P1;SDS_P2;PMS_P1;PMS_P2;Temp;Humidity;BMP_temperature;BMP_pressure;BME280_temperature;BME280_humidity;BME280_pressure;Samples;Min_cycle;Max_cycle;Signal;HPM_P1;HPM_P2
2022/10/17 00:02:18;;;;;;;9.73;6.30;;;22.40;59.90;;;;;;5010381;28;20411;-66
2022/10/17 00:04:44;;;;;;;8.02;5.45;;;22.30;59.70;;;;;;5028479;28;20029;-67
2022/10/17 00:07:10;;;;;;;8.15;4.78;;;22.20;59.50;;;;;;5028893;28;20064;-67
2022/10/17 00:09:36;;;;;;;8.98;6.13;;;22.30;59.80;;;;;;5032594;28;20030;-66
2022/10/17 00:12:02;;;;;;;14.35;6.47;;;22.20;59.90;;;;;;5031957;28;20121;-67
2022/10/17 00:14:28;;;;;;;14.63;6.82;;;22.10;59.90;;;;;;5031463;28;20095;-67
2022/10/17 00:16:54;;;;;;;11.85;6.78;;;22.20;60.00;;;;;;5030520;28;20034;-66
2022/10/17 00:19:20;;;;;;;12.75;7.45;;;22.20;60.00;;;;;;5034404;28;20025;-67
2022/10/17 00:21:48;;;;;;;10.68;6.35;;;22.10;60.00;;;;;;5039661;28;20120;-67
2022/10/17 00:24:14;;;;;;;9.13;5.32;;;22.20;60.00;;;;;;5032742;28;20030;-66
2022/10/17 00:26:40;;;;;;;6.88;4.63;;;22.10;60.20;;;;;;5031891;28;20379;-67
2022/10/17 00:29:06;;;;;;;10.98;4.70;;;22.20;60.40;;;;;;5032169;28;20068;-67
2022/10/17 00:31:32;;;;;;;9.15;5.22;;;22.10;60.20;;;;;;5031452;28;20057;-67
2022/10/17 00:33:58;;;;;;;10.13;5.75;;;22.20;60.20;;;;;;5028268;28;20045;-67
2022/10/17 00:36:25;;;;;;;12.88;7.13;;;22.10;60.30;;;;;;5033126;28;20128;-67
2022/10/17 00:38:55;;;;;;;11.93;8.07;;;22.10;60.30;;;;;;5014780;28;20042;-67
2022/10/17 00:41:25;;;;;;;13.98;7.70;;;22.00;60.40;;;;;;5031584;28;20986;-67
2022/10/17 00:44:00;;;;;;;16.73;7.88;;;22.10;60.60;;;;;;5037714;28;20052;-67
2022/10/17 00:46:29;;;;;;;13.98;7.40;;;22.00;60.50;;;;;;5021414;28;20022;-67
2022/10/17 00:48:58;;;;;;;12.73;6.97;;;22.10;60.80;;;;;;5023644;28;20076;-67
2022/10/17 00:51:44;;;;;;;13.07;7.28;;;22.10;60.80;;;;;;5033044;28;20029;-67
2022/10/17 00:54:15;;;;;;;9.73;5.88;;;22.00;60.60;;;;;;5031262;28;20113;-66
2022/10/17 00:56:41;;;;;;;11.18;6.30;;;22.00;60.50;;;;;;5031448;28;20036;-66
2022/10/17 00:59:09;;;;;;;8.98;5.65;;;22.00;60.60;;;;;;5031613;28;20087;-67
2022/10/17 01:01:41;;;;;;;12.55;6.85;;;22.20;60.80;;;;;;5030478;28;20370;-66
2022/10/17 01:04:08;;;;;;;12.20;6.70;;;22.10;60.60;;;;;;5027925;28;20025;-66
2022/10/17 01:06:34;;;;;;;15.30;6.68;;;22.10;60.70;;;;;;5032101;28;20053;-67
2022/10/17 01:09:00;;;;;;;10.57;6.80;;;22.10;60.70;;;;;;5030927;28;20025;-67
2022/10/17 01:11:44;;;;;;;14.93;7.43;;;22.10;60.70;;;;;;5032338;28;20040;-66
2022/10/17 01:14:39;;;;;;;11.13;7.05;;;22.10;60.60;;;;;;5027859;28;20125;-67
2022/10/17 01:17:13;;;;;;;11.32;6.28;;;22.10;60.70;;;;;;4953887;28;20538;-67
2022/10/17 01:20:00;;;;;;;12.93;6.97;;;22.10;60.60;;;;;;4970002;28;20488;-66
2022/10/17 01:22:59;;;;;;;8.73;6.03;;;22.00;60.80;;;;;;4955136;28;20057;-67
2022/10/17 01:25:46;;;;;;;12.55;6.68;;;22.10;60.80;;;;;;4898990;29;20048;-65
2022/10/17 01:28:25;;;;;;;14.95;9.43;;;22.00;60.80;;;;;;4895014;29;20049;-66
2022/10/17 01:31:13;;;;;;;24.70;13.27;;;22.10;61.00;;;;;;4895316;29;20553;-67
2022/10/17 01:33:58;;;;;;;16.13;8.57;;;22.00;60.80;;;;;;4905805;29;20044;-66
2022/10/17 01:36:24;;;;;;;;;;;22.00;60.80;;;;;;4894457;29;20048;-66
2022/10/17 01:38:57;;;;;;;13.63;8.00;;;22.00;60.60;;;;;;4909209;29;19911;-67
2022/10/17 01:41:48;;;;;;;12.75;8.52;;;21.90;60.70;;;;;;4898921;29;20107;-67
2022/10/17 01:44:24;;;;;;;14.88;8.30;;;21.90;60.60;;;;;;4910390;29;20104;-66
2022/10/17 01:46:59;;;;;;;14.30;8.07;;;21.90;60.80;;;;;;4881752;29;20130;-66
2022/10/17 01:49:28;;;;;;;15.68;8.90;;;21.90;61.20;;;;;;4891768;29;20443;-65
2022/10/17 01:52:01;;;;;;;12.77;8.00;;;21.90;61.20;;;;;;4878267;29;20059;-66
2022/10/17 01:54:38;;;;;;;14.45;8.32;;;21.90;61.30;;;;;;4932811;28;20122;-66
2022/10/17 01:57:09;;;;;;;15.68;7.95;;;21.80;61.20;;;;;;4932832;29;20051;-67
2022/10/17 01:59:47;;;;;;;17.75;9.43;;;21.80;61.20;;;;;;4930885;29;20110;-66
2022/10/17 02:02:18;;;;;;;13.60;8.40;;;21.80;61.30;;;;;;4957507;28;20061;-66
2022/10/17 02:04:46;;;;;;;16.55;8.75;;;21.70;61.50;;;;;;4924093;28;20046;-65
2022/10/17 02:07:14;;;;;;;17.25;9.05;;;21.80;61.60;;;;;;4972259;28;20054;-66
2022/10/17 02:09:40;;;;;;;20.13;9.38;;;21.70;61.70;;;;;;4989028;28;20042;-66
2022/10/17 02:12:09;;;;;;;17.55;8.50;;;21.90;61.80;;;;;;4988247;28;20042;-67
2022/10/17 02:15:04;;;;;;;14.00;8.70;;;21.80;61.70;;;;;;4988041;28;20078;-66
2022/10/17 02:17:43;;;;;;;15.65;8.35;;;21.70;61.80;;;;;;4977245;28;20034;-67
2022/10/17 02:20:40;;;;;;;12.82;7.88;;;21.70;61.90;;;;;;4991692;28;20137;-65
2022/10/17 02:23:19;;;;;;;14.50;7.03;;;21.80;61.70;;;;;;5010767;28;20049;-67
2022/10/17 02:26:03;;;;;;;11.88;6.25;;;21.80;61.60;;;;;;5026592;28;20041;-67
2022/10/17 02:28:49;;;;;;;;;;;21.80;61.60;;;;;;5029975;28;20021;-66
2022/10/17 02:31:55;;;;;;;10.88;5.90;;;21.80;61.70;;;;;;4966614;28;19910;-67
2022/10/17 02:34:49;;;;;;;12.43;7.07;;;21.80;61.70;;;;;;4906637;29;20040;-67
2022/10/17 02:37:20;;;;;;;12.63;6.75;;;21.70;61.70;;;;;;4848282;29;20091;-67
2022/10/17 02:39:49;;;;;;;12.85;8.25;;;21.70;61.70;;;;;;4825255;29;20061;-67
2022/10/17 02:42:16;;;;;;;14.07;8.02;;;21.80;61.90;;;;;;4848168;29;20435;-67
2022/10/17 02:44:44;;;;;;;15.93;8.85;;;21.60;61.80;;;;;;4854648;29;20420;-67
2022/10/17 02:47:32;;;;;;;17.38;8.75;;;21.60;62.00;;;;;;4839717;29;20091;-67
2022/10/17 02:49:58;;;;;;;14.88;7.78;;;21.60;62.00;;;;;;4826928;29;20125;-67
2022/10/17 02:52:24;;;;;;;13.93;7.72;;;21.60;62.00;;;;;;4852579;29;20128;-67
2022/10/17 02:55:01;;;;;;;14.55;7.40;;;21.60;61.80;;;;;;4856389;29;20076;-67
2022/10/17 02:57:53;;;;;;;16.27;7.68;;;21.50;62.10;;;;;;4856214;29;20073;-67
2022/10/17 03:00:21;;;;;;;13.55;7.13;;;21.50;62.30;;;;;;4787983;29;20039;-66
2022/10/17 03:02:50;;;;;;;14.57;7.68;;;21.50;62.20;;;;;;4790607;29;20135;-67
2022/10/17 03:05:20;;;;;;;11.55;6.95;;;21.50;62.40;;;;;;4799840;29;20043;-67
2022/10/17 03:07:46;;;;;;;14.70;8.25;;;21.50;62.20;;;;;;4806339;29;20207;-68
2022/10/17 03:10:12;;;;;;;13.57;7.50;;;21.60;62.30;;;;;;4848476;29;20048;-67
2022/10/17 03:12:38;;;;;;;11.27;6.88;;;21.60;62.30;;;;;;4881067;29;20132;-67
2022/10/17 03:15:05;;;;;;;11.82;7.10;;;21.50;62.30;;;;;;4964059;28;20038;-67
2022/10/17 03:17:31;;;;;;;19.75;6.80;;;21.50;62.00;;;;;;4958259;28;20434;-67
2022/10/17 03:19:57;;;;;;;16.33;7.35;;;21.50;62.10;;;;;;4956874;28;20041;-66
2022/10/17 03:22:23;;;;;;;15.43;6.25;;;21.40;62.10;;;;;;4964190;28;20475;-66
2022/10/17 03:24:49;;;;;;;10.30;6.10;;;21.50;62.50;;;;;;4952416;29;20050;-66
2022/10/17 03:27:16;;;;;;;9.60;5.80;;;21.50;62.60;;;;;;4937242;29;20083;-67
2022/10/17 03:29:44;;;;;;;9.88;6.22;;;21.50;62.50;;;;;;4966087;28;20159;-66
2022/10/17 03:32:11;;;;;;;9.38;5.63;;;21.50;62.40;;;;;;4955608;28;20039;-67
2022/10/17 03:34:37;;;;;;;12.65;6.15;;;21.50;62.50;;;;;;4931044;28;20420;-67
2022/10/17 03:37:03;;;;;;;12.45;6.28;;;21.70;62.20;;;;;;5000439;28;20127;-67
2022/10/17 03:39:31;;;;;;;12.43;6.32;;;21.90;61.70;;;;;;5032458;28;20025;-66
2022/10/17 03:41:57;;;;;;;9.25;5.80;;;21.90;61.10;;;;;;5032976;28;20080;-67
2022/10/17 03:44:23;;;;;;;13.63;7.00;;;22.10;60.80;;;;;;5014414;28;20584;-67
2022/10/17 03:46:49;;;;;;;9.95;6.05;;;22.20;60.20;;;;;;5031995;28;20104;-67
2022/10/17 03:49:15;;;;;;;12.18;7.30;;;22.10;60.30;;;;;;5028938;28;20060;-66
2022/10/17 03:51:41;;;;;;;14.35;6.10;;;22.00;60.60;;;;;;5032150;28;20065;-66
2022/10/17 03:54:11;;;;;;;16.00;6.47;;;21.80;61.20;;;;;;5032181;28;20037;-66
2022/10/17 03:56:38;;;;;;;12.68;6.22;;;21.70;61.40;;;;;;5032380;28;20033;-66
2022/10/17 03:59:13;;;;;;;10.45;6.40;;;21.80;61.70;;;;;;5032098;28;20353;-67
2022/10/17 04:01:39;;;;;;;13.57;6.72;;;21.70;61.90;;;;;;5030665;28;20120;-66
2022/10/17 04:04:06;;;;;;;11.15;7.07;;;21.60;62.00;;;;;;5036169;28;20061;-65
2022/10/17 04:06:35;;;;;;;18.35;7.05;;;21.50;62.40;;;;;;5031457;28;20500;-67
2022/10/17 04:09:03;;;;;;;8.02;5.60;;;21.60;62.80;;;;;;5034744;28;20095;-67
2022/10/17 04:11:48;;;;;;;15.45;7.25;;;21.70;62.50;;;;;;5036405;28;20441;-66
2022/10/17 04:14:14;;;;;;;12.40;7.35;;;21.70;61.50;;;;;;5031919;28;20037;-67
2022/10/17 04:16:41;;;;;;;15.80;7.13;;;21.80;61.20;;;;;;5031448;28;20048;-66
2022/10/17 04:19:15;;;;;;;13.10;6.82;;;21.60;61.40;;;;;;5029596;28;20041;-66
2022/10/17 04:21:45;;;;;;;16.48;8.80;;;21.60;62.10;;;;;;5030081;28;20026;-67
2022/10/17 04:24:11;;;;;;;14.55;8.60;;;21.70;61.50;;;;;;5031892;28;20040;-67
2022/10/17 04:26:43;;;;;;;14.10;7.47;;;21.70;61.50;;;;;;5030653;28;20029;-66
2022/10/17 04:29:09;;;;;;;19.48;7.82;;;21.60;61.80;;;;;;5030328;28;20068;-66
2022/10/17 04:31:36;;;;;;;20.65;8.27;;;21.50;62.30;;;;;;5013255;28;20064;-67
2022/10/17 04:34:09;;;;;;;15.38;7.78;;;21.60;62.20;;;;;;5027403;28;20057;-69
2022/10/17 04:36:37;;;;;;;17.88;7.55;;;21.70;62.00;;;;;;5030392;28;20021;-65
2022/10/17 04:39:04;;;;;;;8.07;5.35;;;21.70;62.10;;;;;;5029277;28;20029;-64
2022/10/17 04:41:31;;;;;;;11.38;3.72;;;21.70;54.40;;;;;;5027759;28;20060;-66
2022/10/17 04:43:57;;;;;;;5.55;3.67;;;21.80;52.10;;;;;;4988837;28;20145;-66
2022/10/17 04:46:24;;;;;;;9.55;4.60;;;21.80;51.80;;;;;;4972977;28;20034;-66
2022/10/17 04:48:50;;;;;;;5.75;3.75;;;21.90;51.60;;;;;;4988255;28;20038;-65
2022/10/17 04:51:17;;;;;;;5.18;4.28;;;21.90;50.30;;;;;;4980097;28;20104;-67
2022/10/17 04:54:10;;;;;;;8.63;3.95;;;21.90;50.00;;;;;;4943401;28;20511;-67
2022/10/17 04:56:39;;;;;;;6.90;4.55;;;22.00;49.80;;;;;;4947443;29;20042;-66
2022/10/17 04:59:05;;;;;;;9.60;5.50;;;22.10;50.80;;;;;;4948951;28;20035;-66
2022/10/17 05:01:31;;;;;;;10.02;4.22;;;22.00;50.50;;;;;;4953258;28;20060;-65
2022/10/17 05:03:57;;;;;;;10.63;6.18;;;22.10;51.10;;;;;;4944533;29;20511;-65
2022/10/17 05:06:27;;;;;;;13.27;8.40;;;22.20;51.00;;;;;;4944734;29;20480;-65
2022/10/17 05:09:15;;;;;;;18.33;9.43;;;22.30;50.60;;;;;;4942902;29;20582;-65
2022/10/17 05:11:42;;;;;;;17.98;9.10;;;22.40;50.00;;;;;;4916587;29;20054;-66
2022/10/17 05:14:28;;;;;;;21.63;9.13;;;22.40;53.00;;;;;;4876899;29;20107;-65
2022/10/17 05:16:54;;;;;;;16.45;9.45;;;22.40;58.10;;;;;;4892907;29;20053;-66
2022/10/17 05:19:20;;;;;;;23.02;11.60;;;22.50;57.90;;;;;;4893591;29;20147;-67
2022/10/17 05:21:49;;;;;;;18.70;8.77;;;22.60;57.70;;;;;;4895559;29;20052;-65
2022/10/17 05:24:15;;;;;;;22.65;10.90;;;22.80;57.80;;;;;;4913425;29;20191;-66
2022/10/17 05:26:41;;;;;;;24.25;9.73;;;22.80;61.60;;;;;;4913575;29;20036;-65
2022/10/17 05:29:08;;;;;;;18.00;11.45;;;22.80;64.20;;;;;;4913313;29;20048;-66
2022/10/17 05:31:38;;;;;;;20.48;10.32;;;22.80;63.20;;;;;;4954973;28;20126;-65
2022/10/17 05:34:06;;;;;;;18.60;10.82;;;22.90;61.60;;;;;;4996559;28;20052;-67
2022/10/17 05:36:33;;;;;;;21.00;11.65;;;22.80;60.70;;;;;;5009821;28;20040;-68
2022/10/17 05:39:03;;;;;;;24.08;12.10;;;22.60;61.10;;;;;;4990079;28;20073;-67
2022/10/17 05:41:29;;;;;;;19.02;11.63;;;22.60;61.80;;;;;;4974199;28;20070;-68
2022/10/17 05:43:57;;;;;;;23.48;9.70;;;22.80;61.80;;;;;;4975983;28;20037;-67
2022/10/17 05:46:47;;;;;;;19.88;8.18;;;22.80;61.70;;;;;;5035794;28;20072;-65
2022/10/17 05:49:14;;;;;;;17.42;9.48;;;22.90;61.60;;;;;;5014757;28;20029;-64
2022/10/17 05:51:41;;;;;;;14.93;8.85;;;23.00;61.40;;;;;;5028024;28;20026;-64
2022/10/17 05:54:08;;;;;;;11.73;8.45;;;23.00;60.10;;;;;;5028157;28;20025;-70
2022/10/17 05:56:36;;;;;;;23.25;11.57;;;23.10;59.90;;;;;;5030325;28;20522;-71
2022/10/17 05:59:02;;;;;;;19.27;9.75;;;23.10;59.60;;;;;;5027668;28;20056;-69
2022/10/17 06:02:00;;;;;;;22.48;10.90;;;23.10;59.30;;;;;;4969946;28;20628;-69
2022/10/17 06:04:26;;;;;;;16.73;10.77;;;23.10;59.10;;;;;;4955655;28;20500;-67
2022/10/17 06:07:12;;;;;;;20.15;10.75;;;23.10;59.10;;;;;;4935090;29;20063;-66
2022/10/17 06:09:39;;;;;;;22.08;10.70;;;23.00;59.00;;;;;;4931416;29;20039;-66
2022/10/17 06:12:06;;;;;;;18.30;9.57;;;23.00;59.10;;;;;;4915301;29;20144;-66
2022/10/17 06:14:32;;;;;;;16.60;9.45;;;22.90;59.30;;;;;;4923118;29;20036;-67
2022/10/17 06:17:01;;;;;;;16.23;9.13;;;22.90;59.30;;;;;;4922968;29;20048;-66
2022/10/17 06:19:27;;;;;;;16.98;9.10;;;22.90;59.20;;;;;;4883848;29;20037;-66
2022/10/17 06:21:53;;;;;;;14.13;9.15;;;23.00;59.10;;;;;;4926937;29;20054;-65
2022/10/17 06:24:21;;;;;;;15.32;8.77;;;22.90;59.00;;;;;;4928126;29;20044;-66
2022/10/17 06:26:50;;;;;;;12.93;7.93;;;23.10;59.00;;;;;;4930506;29;20735;-66
2022/10/17 06:29:19;;;;;;;22.13;9.15;;;23.00;58.90;;;;;;4926667;29;20039;-67
2022/10/17 06:31:47;;;;;;;16.17;9.02;;;23.10;58.80;;;;;;4930770;29;20040;-65
2022/10/17 06:34:14;;;;;;;16.52;8.60;;;23.00;58.70;;;;;;4913597;28;20059;-67
2022/10/17 06:36:40;;;;;;;26.50;9.27;;;23.00;58.50;;;;;;4951354;28;20049;-67
2022/10/17 06:39:07;;;;;;;16.88;8.38;;;23.20;58.40;;;;;;5044145;28;20045;-67
2022/10/17 06:41:43;;;;;;;15.10;7.27;;;23.10;58.40;;;;;;5045479;28;20170;-67
2022/10/17 06:44:10;;;;;;;15.70;6.82;;;23.00;58.40;;;;;;5045745;28;20489;-68
2022/10/17 06:46:49;;;;;;;12.65;6.85;;;23.00;58.40;;;;;;5028752;28;20145;-68
2022/10/17 06:49:16;;;;;;;12.63;6.35;;;22.90;58.80;;;;;;5046669;28;20033;-67
2022/10/17 06:52:01;;;;;;;15.23;6.80;;;22.90;58.80;;;;;;5008557;28;20046;-68
2022/10/17 06:54:43;;;;;;;12.50;6.68;;;22.80;58.90;;;;;;5008072;28;20037;-68
2022/10/17 06:57:28;;;;;;;14.27;6.82;;;22.70;58.90;;;;;;5010638;28;20033;-67
2022/10/17 07:00:13;;;;;;;16.17;7.00;;;22.70;59.10;;;;;;5043721;28;20054;-68
2022/10/17 07:02:44;;;;;;;12.43;7.00;;;22.80;59.20;;;;;;5045447;28;20052;-68
2022/10/17 07:05:10;;;;;;;21.52;7.43;;;22.70;59.20;;;;;;5044578;28;20033;-68
2022/10/17 07:07:36;;;;;;;11.00;7.20;;;22.70;59.10;;;;;;5027505;28;20048;-68
2022/10/17 07:10:07;;;;;;;12.30;7.97;;;22.80;59.10;;;;;;5028420;28;20037;-68
2022/10/17 07:12:35;;;;;;;12.80;5.38;;;22.70;59.00;;;;;;5010100;28;20410;-68
2022/10/17 07:15:05;;;;;;;13.70;6.45;;;22.80;58.90;;;;;;5026298;28;20033;-68
2022/10/17 07:17:31;;;;;;;13.65;6.75;;;22.90;58.90;;;;;;5026647;28;20026;-68
2022/10/17 07:19:57;;;;;;;21.63;7.38;;;23.10;58.60;;;;;;5028871;28;20038;-68
2022/10/17 07:22:43;;;;;;;10.60;6.32;;;23.10;58.40;;;;;;5008095;28;20042;-69
2022/10/17 07:25:09;;;;;;;13.13;6.90;;;23.10;58.10;;;;;;5008910;28;20033;-66
2022/10/17 07:27:42;;;;;;;;;;;23.10;57.80;;;;;;5001608;28;20042;-66
2022/10/17 07:30:09;;;;;;;10.20;5.57;;;23.10;57.60;;;;;;5007865;28;19917;-68
2022/10/17 07:32:38;;;;;;;10.68;6.10;;;23.20;57.40;;;;;;4992566;28;20064;-66
2022/10/17 07:35:05;;;;;;;11.50;6.50;;;23.10;57.10;;;;;;4976611;28;20036;-67
2022/10/17 07:37:32;;;;;;;14.63;6.90;;;23.10;56.90;;;;;;4993495;28;20145;-67
2022/10/17 07:39:59;;;;;;;9.88;6.13;;;23.10;56.60;;;;;;5007729;28;20044;-68
2022/10/17 07:42:26;;;;;;;15.82;6.43;;;23.20;56.40;;;;;;4992665;28;20068;-68
2022/10/17 07:44:53;;;;;;;5.85;4.20;;;23.20;56.20;;;;;;4995335;28;20487;-68
2022/10/17 07:47:20;;;;;;;8.77;5.15;;;23.10;56.40;;;;;;5004786;28;20033;-66
2022/10/17 07:49:47;;;;;;;11.18;5.05;;;23.10;56.60;;;;;;5015232;28;20099;-68
2022/10/17 07:52:14;;;;;;;10.32;4.90;;;23.10;56.80;;;;;;5024389;28;20698;-67
2022/10/17 07:54:40;;;;;;;8.30;4.95;;;23.20;56.70;;;;;;5049394;28;20049;-67
2022/10/17 07:57:07;;;;;;;9.30;5.30;;;23.10;56.40;;;;;;5054308;28;20025;-67
2022/10/17 07:59:33;;;;;;;6.07;4.88;;;23.20;55.90;;;;;;5035044;28;20425;-66
2022/10/17 08:02:00;;;;;;;10.27;5.05;;;23.10;55.40;;;;;;5032689;28;20049;-66
2022/10/17 08:04:27;;;;;;;10.30;4.80;;;23.20;55.10;;;;;;5033864;28;20112;-68
2022/10/17 08:06:53;;;;;;;5.07;4.10;;;23.20;55.00;;;;;;5044379;28;20057;-67
2022/10/17 08:09:19;;;;;;;13.05;5.25;;;23.20;55.00;;;;;;5049705;28;20409;-67
2022/10/17 08:11:45;;;;;;;11.18;4.40;;;23.20;55.00;;;;;;5053800;28;20458;-68
2022/10/17 08:14:12;;;;;;;8.45;4.20;;;23.30;54.80;;;;;;5050895;28;20028;-69
2022/10/17 08:16:42;;;;;;;5.53;4.38;;;23.20;51.40;;;;;;5053774;28;20485;-68
2022/10/17 08:19:10;;;;;;;7.38;4.50;;;23.20;55.40;;;;;;5053684;28;20119;-69
2022/10/17 08:21:36;;;;;;;7.95;4.32;;;23.10;47.90;;;;;;5047586;28;20542;-68
2022/10/17 08:24:03;;;;;;;7.22;4.07;;;23.00;54.90;;;;;;5041961;28;20418;-68
2022/10/17 08:26:29;;;;;;;9.18;4.30;;;23.10;55.00;;;;;;5033371;28;20415;-66
2022/10/17 08:28:55;;;;;;;9.45;4.15;;;23.10;53.30;;;;;;5033604;28;20039;-67
2022/10/17 08:31:22;;;;;;;8.57;4.97;;;23.00;52.70;;;;;;5032148;28;20026;-69
2022/10/17 08:33:49;;;;;;;5.57;3.83;;;23.10;52.80;;;;;;5032299;28;20387;-69
2022/10/17 08:36:18;;;;;;;6.20;3.83;;;23.10;53.30;;;;;;5034273;28;20030;-65
2022/10/17 08:38:44;;;;;;;6.43;4.40;;;23.20;54.00;;;;;;5050165;28;20048;-66
2022/10/17 08:41:29;;;;;;;7.63;4.22;;;23.20;54.50;;;;;;5053095;28;20048;-65
2022/10/17 08:44:30;;;;;;;5.55;4.07;;;23.10;54.70;;;;;;5053201;28;20037;-66
2022/10/17 08:47:01;;;;;;;9.13;4.10;;;23.10;55.20;;;;;;4971499;28;20070;-65
2022/10/17 08:49:32;;;;;;;9.52;3.50;;;23.10;55.60;;;;;;4971797;28;20178;-66
2022/10/17 08:52:06;;;;;;;10.60;3.70;;;23.20;55.80;;;;;;4969192;28;20097;-65
2022/10/17 08:54:39;;;;;;;6.30;3.38;;;23.40;56.30;;;;;;4965180;28;20110;-64
2022/10/17 08:57:14;;;;;;;4.63;3.20;;;23.30;56.60;;;;;;4933652;29;20046;-65
2022/10/17 08:59:44;;;;;;;10.45;4.45;;;23.30;56.70;;;;;;4951655;29;20119;-66
2022/10/17 09:02:38;;;;;;;6.80;3.30;;;23.40;57.00;;;;;;4935501;29;20130;-65
2022/10/17 09:05:33;;;;;;;9.18;3.85;;;23.40;57.20;;;;;;4936215;29;20101;-65
2022/10/17 09:08:30;;;;;;;7.90;3.55;;;23.40;57.40;;;;;;4934206;29;20086;-66
2022/10/17 09:11:53;;;;;;;7.32;3.40;;;23.50;57.70;;;;;;4931967;29;20412;-67
2022/10/17 09:14:37;;;;;;;7.28;2.92;;;23.50;57.80;;;;;;4895707;29;20044;-69
2022/10/17 09:17:29;;;;;;;4.78;2.67;;;23.50;58.10;;;;;;4892834;29;20546;-69
2022/10/17 09:20:08;;;;;;;6.00;3.00;;;23.50;58.40;;;;;;4838934;29;20057;-68
2022/10/17 09:22:50;;;;;;;5.97;3.10;;;23.50;57.90;;;;;;4828570;29;20085;-67
2022/10/17 09:25:19;;;;;;;7.20;3.38;;;23.40;58.60;;;;;;4896869;29;20049;-68
2022/10/17 09:28:11;;;;;;;6.82;2.60;;;23.40;55.10;;;;;;4894945;29;20047;-67
2022/10/17 09:30:43;;;;;;;2.92;2.22;;;23.40;48.00;;;;;;4875762;29;20040;-67
2022/10/17 09:33:16;;;;;;;4.13;2.45;;;23.50;46.20;;;;;;4875720;29;20065;-67
2022/10/17 09:35:42;;;;;;;8.80;3.35;;;23.40;45.40;;;;;;4875527;29;20411;-68
2022/10/17 09:38:20;;;;;;;4.60;2.90;;;23.40;45.10;;;;;;4874479;29;20045;-67
2022/10/17 09:40:55;;;;;;;15.60;3.72;;;23.40;43.10;;;;;;4875753;29;20481;-67
2022/10/17 09:43:23;;;;;;;5.28;3.05;;;23.50;44.10;;;;;;4875392;29;20101;-67
2022/10/17 09:46:02;;;;;;;5.35;3.75;;;23.50;47.60;;;;;;4892776;29;20044;-69
2022/10/17 09:48:40;;;;;;;5.28;3.10;;;23.60;48.80;;;;;;4879694;29;20127;-67
2022/10/17 09:51:07;;;;;;;6.82;3.17;;;23.70;46.20;;;;;;4904389;29;20454;-68
2022/10/17 09:53:37;;;;;;;5.85;2.83;;;23.60;48.90;;;;;;4906670;29;20115;-67
2022/10/17 09:56:15;;;;;;;7.20;2.95;;;23.80;51.20;;;;;;4908471;29;20055;-65
2022/10/17 09:58:43;;;;;;;7.90;2.95;;;24.00;57.70;;;;;;4942813;29;20039;-65
2022/10/17 10:01:27;;;;;;;8.48;2.83;;;24.20;54.00;;;;;;4950169;29;20712;-65
2022/10/17 10:04:11;;;;;;;3.22;2.92;;;24.30;54.20;;;;;;4951496;29;20062;-67
2022/10/17 10:07:02;;;;;;;4.32;3.20;;;24.30;49.10;;;;;;4961156;28;20093;-67
2022/10/17 10:09:31;;;;;;;3.78;1.90;;;24.30;56.30;;;;;;4982265;28;20507;-68
2022/10/17 10:12:02;;;;;;;0.95;0.85;;;24.40;55.90;;;;;;4975207;28;20061;-66
2022/10/17 10:14:32;;;;;;;1.88;1.70;;;24.60;55.90;;;;;;5007966;28;20042;-67
2022/10/17 10:17:19;;;;;;;9.80;3.55;;;24.60;55.40;;;;;;5008354;28;20049;-68
2022/10/17 10:19:50;;;;;;;5.00;2.90;;;24.80;55.40;;;;;;4985916;28;20061;-68
2022/10/17 10:22:18;;;;;;;2.75;1.80;;;24.80;52.60;;;;;;4970337;28;20042;-66
2022/10/17 10:24:44;;;;;;;13.77;4.05;;;24.70;51.60;;;;;;4988777;28;20042;-66
2022/10/17 10:27:16;;;;;;;2.38;1.35;;;24.60;49.90;;;;;;4988845;28;20034;-66
2022/10/17 10:29:50;;;;;;;3.72;2.08;;;24.50;48.60;;;;;;4984609;28;20046;-67
2022/10/17 10:32:27;;;;;;;0.73;0.73;;;24.50;49.00;;;;;;4988831;28;20065;-66
2022/10/17 10:35:05;;;;;;;2.17;1.98;;;24.50;50.00;;;;;;4988810;28;20126;-67
2022/10/17 10:38:17;;;;;;;17.05;3.88;;;24.50;50.80;;;;;;4986988;28;20088;-67
2022/10/17 10:40:53;;;;;;;2.45;1.05;;;24.70;51.70;;;;;;4924838;29;20516;-68
2022/10/17 10:43:37;;;;;;;0.60;0.60;;;24.80;54.70;;;;;;4960976;28;20427;-68
2022/10/17 10:46:26;;;;;;;4.70;1.63;;;25.00;55.50;;;;;;4945833;28;20055;-67
2022/10/17 10:49:29;;;;;;;4.95;3.13;;;25.00;50.30;;;;;;4921981;29;20541;-67
2022/10/17 10:51:59;;;;;;;2.75;1.92;;;25.00;48.80;;;;;;4900674;29;20213;-67
2022/10/17 10:54:30;;;;;;;0.68;0.68;;;24.70;47.00;;;;;;4890508;29;20043;-66
2022/10/17 10:57:03;;;;;;;8.35;2.30;;;24.70;47.00;;;;;;4891774;29;20450;-67
2022/10/17 10:59:32;;;;;;;7.35;3.60;;;24.60;47.00;;;;;;4891171;29;20439;-64
2022/10/17 11:02:10;;;;;;;6.63;2.45;;;24.60;42.10;;;;;;4892672;29;20048;-65
2022/10/17 11:04:48;;;;;;;4.82;2.95;;;24.50;46.80;;;;;;4889676;29;20706;-66
2022/10/17 11:07:37;;;;;;;5.03;3.10;;;24.50;47.30;;;;;;4896126;29;20096;-65
2022/10/17 11:10:22;;;;;;;4.57;2.50;;;24.50;47.90;;;;;;4874969;29;20047;-65
2022/10/17 11:12:58;;;;;;;4.22;2.40;;;24.50;48.70;;;;;;4985821;28;20053;-64
2022/10/17 11:15:36;;;;;;;8.30;3.03;;;24.40;49.00;;;;;;4988124;28;20110;-65
2022/10/17 11:18:12;;;;;;;11.45;4.15;;;24.30;49.40;;;;;;4991219;28;20030;-65
2022/10/17 11:20:50;;;;;;;7.57;3.25;;;24.30;49.40;;;;;;4991848;28;20065;-65
2022/10/17 11:23:22;;;;;;;5.03;2.35;;;24.30;50.10;;;;;;4978140;28;20324;-65
2022/10/17 11:25:51;;;;;;;3.58;2.58;;;24.30;48.40;;;;;;5020218;28;20781;-65
2022/10/17 11:28:21;;;;;;;6.78;2.13;;;24.10;51.80;;;;;;5033407;28;20025;-64
2022/10/17 11:30:54;;;;;;;7.68;2.60;;;24.20;52.30;;;;;;5033805;28;20467;-64
2022/10/17 11:33:37;;;;;;;5.90;2.80;;;24.10;52.90;;;;;;5030651;28;20045;-64
2022/10/17 11:36:07;;;;;;;6.15;2.17;;;24.10;53.10;;;;;;5040728;28;20029;-66
2022/10/17 11:38:41;;;;;;;7.82;2.20;;;24.10;53.20;;;;;;5031801;28;20047;-66
2022/10/17 11:41:17;;;;;;;7.78;2.42;;;24.20;53.60;;;;;;5031760;28;20404;-65
2022/10/17 11:44:01;;;;;;;4.35;2.08;;;24.00;53.40;;;;;;5001488;28;20045;-64
2022/10/17 11:46:28;;;;;;;5.63;2.38;;;24.10;53.70;;;;;;5014169;28;20107;-65
2022/10/17 11:49:18;;;;;;;4.82;2.05;;;24.10;53.70;;;;;;5028765;28;20045;-65
2022/10/17 11:52:04;;;;;;;3.22;2.55;;;24.10;53.70;;;;;;5030868;28;20049;-65
2022/10/17 11:54:47;;;;;;;3.90;2.17;;;24.10;53.70;;;;;;4990362;28;20039;-67
2022/10/17 11:57:40;;;;;;;2.53;2.10;;;24.10;53.60;;;;;;4986637;28;20046;-66
2022/10/17 12:00:40;;;;;;;3.53;2.25;;;24.10;53.70;;;;;;4992808;28;20057;-66
2022/10/17 12:03:43;;;;;;;4.72;2.78;;;24.10;53.40;;;;;;4986051;28;20101;-66
2022/10/17 12:06:33;;;;;;;3.63;2.17;;;24.10;53.00;;;;;;4993682;28;20057;-65
2022/10/17 12:09:39;;;;;;;5.43;2.28;;;24.00;52.60;;;;;;4992170;28;20093;-68
2022/10/17 12:12:06;;;;;;;3.75;2.50;;;24.00;52.20;;;;;;4980286;28;20536;-65
2022/10/17 12:14:46;;;;;;;4.20;2.42;;;24.00;52.20;;;;;;4976378;28;20523;-65
2022/10/17 12:17:35;;;;;;;3.25;2.53;;;24.00;52.20;;;;;;4991345;28;20057;-64
2022/10/17 12:20:19;;;;;;;3.03;2.10;;;24.10;52.30;;;;;;4991107;28;20046;-64
2022/10/17 12:22:47;;;;;;;5.00;2.35;;;23.90;52.10;;;;;;4987788;28;20052;-64
2022/10/17 12:25:23;;;;;;;3.30;2.53;;;23.90;52.10;;;;;;5013162;28;20076;-64
2022/10/17 12:27:50;;;;;;;4.47;2.40;;;24.00;52.10;;;;;;5052857;28;20040;-65
2022/10/17 12:30:21;;;;;;;5.57;2.15;;;23.90;52.10;;;;;;5033535;28;20029;-64
2022/10/17 12:32:58;;;;;;;5.25;2.00;;;23.80;52.00;;;;;;5021911;28;20037;-66
2022/10/17 12:35:26;;;;;;;5.03;2.47;;;23.80;52.00;;;;;;5031663;28;20064;-65
2022/10/17 12:37:52;;;;;;;6.18;2.25;;;23.80;52.20;;;;;;5049420;28;20094;-65
2022/10/17 12:40:36;;;;;;;3.63;1.90;;;23.80;52.30;;;;;;5035228;28;20036;-66
2022/10/17 12:43:16;;;;;;;3.47;2.20;;;23.80;52.40;;;;;;5050104;28;20041;-65
2022/10/17 12:45:56;;;;;;;4.93;2.60;;;23.80;52.50;;;;;;5049869;28;20033;-66
2022/10/17 12:48:38;;;;;;;9.52;2.85;;;23.70;52.70;;;;;;5014268;28;20042;-65
2022/10/17 12:51:18;;;;;;;3.22;2.45;;;23.80;52.90;;;;;;5033283;28;20103;-66
2022/10/17 12:53:53;;;;;;;3.83;2.40;;;23.70;53.00;;;;;;5034072;28;20087;-66
2022/10/17 12:56:44;;;;;;;3.00;1.85;;;23.70;53.20;;;;;;5034061;28;20120;-65
2022/10/17 12:59:16;;;;;;;5.70;2.00;;;23.60;53.30;;;;;;5046505;28;20025;-66
2022/10/17 13:01:46;;;;;;;2.53;1.83;;;23.70;53.40;;;;;;5033035;28;20475;-65
2022/10/17 13:04:13;;;;;;;6.20;2.13;;;23.70;53.60;;;;;;5031199;28;20037;-66
2022/10/17 13:06:53;;;;;;;4.43;2.40;;;23.80;53.70;;;;;;5044657;28;20048;-66
2022/10/17 13:09:27;;;;;;;4.25;2.13;;;23.70;54.10;;;;;;5052066;28;20082;-66
2022/10/17 13:11:56;;;;;;;2.38;1.60;;;23.80;54.10;;;;;;5043560;28;20037;-66
2022/10/17 13:14:24;;;;;;;4.43;2.05;;;23.70;54.10;;;;;;5029388;28;20036;-65